Time;durP1;ratioP1;P1;durP2;ratioP2;P2;SDS_P1;SDS_P2;PMS_P1;PMS_P2;Temp;Humidity;BMP_temperature;BMP_pressure;BME280_temperature;BME280_humidity;BME280_pressure;Samples;Min_cycle;Max_cycle;Signal;HPM_P1;HPM_P2
2021/06/06 00:01:41;;;;;;;5.73;5.40;;;16.90;99.90;;;;;;4913593;29;20209;-76
2021/06/06 00:04:13;;;;;;;6.17;5.77;;;16.90;99.90;;;;;;4900974;29;20208;-78
2021/06/06 00:06:40;;;;;;;5.87;5.57;;;16.90;99.90;;;;;;4911924;29;20205;-78
2021/06/06 00:09:11;;;;;;;6.00;5.60;;;16.90;99.90;;;;;;4917535;29;20224;-76
2021/06/06 00:11:42;;;;;;;5.80;5.50;;;16.80;99.90;;;;;;4909849;29;20741;-77
2021/06/06 00:14:12;;;;;;;6.43;6.03;;;16.80;99.90;;;;;;4917405;29;20204;-77
2021/06/06 00:16:42;;;;;;;6.17;5.77;;;16.80;99.90;;;;;;4908769;29;20192;-77
2021/06/06 00:19:09;;;;;;;6.00;5.70;;;16.80;99.90;;;;;;4912504;29;20221;-77
2021/06/06 00:21:37;;;;;;;6.17;5.80;;;16.80;99.90;;;;;;4897498;29;20765;-77
2021/06/06 00:24:05;;;;;;;6.00;5.70;;;16.70;99.90;;;;;;4914714;29;20208;-77
2021/06/06 00:26:31;;;;;;;6.13;5.77;;;16.80;99.90;;;;;;4898185;29;20236;-77
2021/06/06 00:28:59;;;;;;;6.20;5.90;;;16.80;99.90;;;;;;4912144;29;20221;-77
2021/06/06 00:31:26;;;;;;;6.10;5.70;;;16.80;99.90;;;;;;4899626;29;20260;-77
2021/06/06 00:33:53;;;;;;;5.80;5.50;;;16.80;99.90;;;;;;4912040;29;20698;-77
2021/06/06 00:36:21;;;;;;;5.50;5.20;;;16.70;99.90;;;;;;4899158;29;20258;-76
2021/06/06 00:38:48;;;;;;;6.13;5.73;;;16.80;99.90;;;;;;4912743;29;20702;-78
2021/06/06 00:41:16;;;;;;;6.50;6.20;;;16.80;99.90;;;;;;4894362;29;20200;-77
2021/06/06 00:43:45;;;;;;;6.60;6.20;;;16.80;99.90;;;;;;4896155;29;20196;-77
2021/06/06 00:46:14;;;;;;;6.40;6.00;;;16.70;99.90;;;;;;4899132;29;20350;-77
2021/06/06 00:48:41;;;;;;;6.50;6.10;;;16.70;99.90;;;;;;4909415;29;20213;-77
2021/06/06 00:51:14;;;;;;;6.30;5.90;;;16.70;99.90;;;;;;4907653;29;20594;-77
2021/06/06 00:53:47;;;;;;;6.43;6.03;;;16.70;99.90;;;;;;4892933;29;20207;-77
2021/06/06 00:56:17;;;;;;;6.50;6.10;;;16.70;99.90;;;;;;4907799;29;20637;-77
2021/06/06 00:58:47;;;;;;;6.80;6.30;;;16.70;99.90;;;;;;4892926;29;20255;-77
2021/06/06 01:01:18;;;;;;;6.30;5.90;;;16.70;99.90;;;;;;4912807;29;20247;-77
2021/06/06 01:03:50;;;;;;;5.97;5.67;;;16.70;99.90;;;;;;4899908;29;20204;-78
2021/06/06 01:06:24;;;;;;;6.40;6.00;;;16.70;99.90;;;;;;4895094;29;20337;-78
2021/06/06 01:08:52;;;;;;;6.10;5.80;;;16.60;99.90;;;;;;4904181;29;20235;-78
2021/06/06 01:11:26;;;;;;;6.53;6.13;;;16.60;99.90;;;;;;4898480;29;20215;-77
2021/06/06 01:13:59;;;;;;;6.30;6.00;;;16.60;99.90;;;;;;4912747;29;20263;-77
2021/06/06 01:16:33;;;;;;;6.30;5.90;;;16.60;99.90;;;;;;4897913;29;20203;-77
2021/06/06 01:19:05;;;;;;;6.33;5.93;;;16.60;99.90;;;;;;4907253;29;20291;-77
2021/06/06 01:21:51;;;;;;;6.30;5.90;;;16.50;99.90;;;;;;4891441;29;20200;-78
2021/06/06 01:24:28;;;;;;;6.50;6.10;;;16.60;99.90;;;;;;4908492;29;20974;-77
2021/06/06 01:26:58;;;;;;;6.27;5.87;;;16.60;99.90;;;;;;4891748;29;20678;-77
2021/06/06 01:29:37;;;;;;;6.37;5.87;;;16.60;99.90;;;;;;4891406;29;20236;-77
2021/06/06 01:32:10;;;;;;;6.50;6.20;;;16.60;99.90;;;;;;4892619;29;20763;-77
2021/06/06 01:34:42;;;;;;;6.50;6.10;;;16.60;99.90;;;;;;4895662;29;20580;-78
2021/06/06 01:37:13;;;;;;;6.50;6.10;;;16.60;99.90;;;;;;4892097;29;20204;-76
2021/06/06 01:39:45;;;;;;;6.43;6.03;;;16.60;99.90;;;;;;4895541;29;20305;-77
2021/06/06 01:42:18;;;;;;;6.20;5.90;;;16.60;99.90;;;;;;4895802;29;20201;-77
2021/06/06 01:44:51;;;;;;;6.50;6.10;;;16.60;99.90;;;;;;4892472;29;20696;-77
2021/06/06 01:47:23;;;;;;;6.50;6.10;;;16.60;99.90;;;;;;4891309;29;20215;-77
2021/06/06 01:49:53;;;;;;;6.40;6.00;;;16.50;99.90;;;;;;4908068;29;20204;-78
2021/06/06 01:52:28;;;;;;;6.50;6.10;;;16.50;99.90;;;;;;4898726;29;20249;-77
2021/06/06 01:54:58;;;;;;;6.40;6.00;;;16.50;99.90;;;;;;4911930;29;20199;-77
2021/06/06 01:57:28;;;;;;;6.60;6.20;;;16.50;99.90;;;;;;4890797;29;20207;-77
2021/06/06 02:00:00;;;;;;;6.80;6.40;;;16.50;99.90;;;;;;4890982;29;20214;-77
2021/06/06 02:02:32;;;;;;;6.90;6.50;;;16.50;99.90;;;;;;4907831;29;20204;-77
2021/06/06 02:05:00;;;;;;;6.70;6.30;;;16.50;99.90;;;;;;4892774;29;20205;-77
2021/06/06 02:07:32;;;;;;;6.80;6.40;;;16.50;99.90;;;;;;4889200;29;20292;-77
2021/06/06 02:10:15;;;;;;;6.77;6.37;;;16.50;99.90;;;;;;4897723;29;20692;-77
2021/06/06 02:12:46;;;;;;;6.80;6.40;;;16.50;99.90;;;;;;4908141;29;20259;-77
2021/06/06 02:15:18;;;;;;;6.60;6.20;;;16.40;99.90;;;;;;4890830;29;20208;-77
2021/06/06 02:17:54;;;;;;;6.93;6.53;;;16.40;99.90;;;;;;4906545;29;20228;-77
2021/06/06 02:20:28;;;;;;;6.87;6.47;;;16.30;99.90;;;;;;4890317;29;20204;-78
2021/06/06 02:22:55;;;;;;;7.00;6.60;;;16.30;99.90;;;;;;4890651;29;20221;-76
2021/06/06 02:25:26;;;;;;;7.10;6.60;;;16.30;99.90;;;;;;4890698;29;20206;-78
2021/06/06 02:28:07;;;;;;;7.07;6.67;;;16.30;99.90;;;;;;4893127;29;20226;-77
2021/06/06 02:30:41;;;;;;;7.40;7.00;;;16.30;99.90;;;;;;4895302;29;20208;-76
2021/06/06 02:33:16;;;;;;;6.63;6.33;;;16.30;99.90;;;;;;4894688;29;20211;-77
2021/06/06 02:35:51;;;;;;;6.87;6.47;;;16.20;99.90;;;;;;4911012;29;20192;-77
2021/06/06 02:38:22;;;;;;;6.63;6.30;;;16.30;99.90;;;;;;4913410;29;20231;-78
2021/06/06 02:41:04;;;;;;;7.00;6.60;;;16.20;99.90;;;;;;4894153;29;20212;-76
2021/06/06 02:43:41;;;;;;;7.10;6.60;;;16.20;99.90;;;;;;4891522;29;20583;-78
2021/06/06 02:46:09;;;;;;;7.20;6.80;;;16.20;99.90;;;;;;4892281;29;20212;-77
2021/06/06 02:48:41;;;;;;;7.00;6.60;;;16.10;99.90;;;;;;4914251;29;20240;-78
2021/06/06 02:51:15;;;;;;;6.90;6.50;;;16.10;99.90;;;;;;4899657;29;20231;-76
2021/06/06 02:53:48;;;;;;;7.23;6.83;;;16.10;99.90;;;;;;4905994;29;20689;-77
2021/06/06 02:56:28;;;;;;;7.27;6.77;;;16.10;99.90;;;;;;4894528;29;20563;-77
2021/06/06 02:59:02;;;;;;;7.07;6.67;;;16.10;99.90;;;;;;4886417;29;20226;-77
2021/06/06 03:01:33;;;;;;;7.07;6.67;;;16.00;99.90;;;;;;4901763;29;20220;-76
2021/06/06 03:04:09;;;;;;;7.47;7.07;;;16.00;99.90;;;;;;4896168;29;20207;-76
2021/06/06 03:06:43;;;;;;;7.07;6.67;;;16.00;99.90;;;;;;4900083;29;21021;-75
2021/06/06 03:09:13;;;;;;;7.30;6.90;;;16.00;99.90;;;;;;4906708;29;20705;-77
2021/06/06 03:11:49;;;;;;;7.60;7.10;;;16.00;99.90;;;;;;4901129;29;20574;-76
2021/06/06 03:14:20;;;;;;;7.20;6.80;;;16.00;99.90;;;;;;4920727;29;20293;-76
2021/06/06 03:16:54;;;;;;;7.20;6.80;;;16.00;99.90;;;;;;4920072;29;20211;-76
2021/06/06 03:19:25;;;;;;;7.30;6.90;;;16.00;99.90;;;;;;4898468;29;20225;-76
2021/06/06 03:21:53;;;;;;;7.13;6.73;;;16.00;99.90;;;;;;4898914;29;20216;-77
2021/06/06 03:24:28;;;;;;;7.30;6.90;;;16.00;99.90;;;;;;4901176;29;20200;-77
2021/06/06 03:27:00;;;;;;;7.20;6.80;;;16.00;99.90;;;;;;4918535;29;20204;-76
2021/06/06 03:29:31;;;;;;;7.00;6.60;;;16.00;99.90;;;;;;4899362;29;20225;-76
2021/06/06 03:32:04;;;;;;;7.73;7.23;;;16.00;99.90;;;;;;4916112;29;20196;-76
2021/06/06 03:34:31;;;;;;;7.60;7.20;;;15.90;99.90;;;;;;4900742;29;20199;-77
2021/06/06 03:37:03;;;;;;;8.37;7.87;;;15.90;99.90;;;;;;4898116;29;20263;-76
2021/06/06 03:39:53;;;;;;;8.10;7.60;;;15.90;99.90;;;;;;4894280;29;20289;-76
2021/06/06 03:42:26;;;;;;;7.90;7.40;;;15.90;99.90;;;;;;4903559;29;20229;-76
2021/06/06 03:44:55;;;;;;;8.10;7.60;;;15.80;99.90;;;;;;4896702;29;20692;-76
2021/06/06 03:47:25;;;;;;;8.50;8.00;;;15.80;99.90;;;;;;4905172;29;20207;-76
2021/06/06 03:49:54;;;;;;;8.10;7.50;;;15.80;99.90;;;;;;4896680;29;20205;-76
2021/06/06 03:52:22;;;;;;;7.77;7.37;;;15.80;99.90;;;;;;4902786;29;20749;-76
2021/06/06 03:54:51;;;;;;;8.30;7.80;;;15.80;99.90;;;;;;4897357;29;20295;-76
2021/06/06 03:57:20;;;;;;;7.80;7.40;;;15.80;99.90;;;;;;4906954;29;20205;-78
2021/06/06 03:59:50;;;;;;;7.90;7.50;;;15.80;99.90;;;;;;4900242;29;20214;-77
2021/06/06 04:02:18;;;;;;;8.37;7.77;;;15.80;99.90;;;;;;4899870;29;20239;-78
2021/06/06 04:04:45;;;;;;;8.60;8.00;;;15.80;99.90;;;;;;4901086;29;20216;-77
2021/06/06 04:07:12;;;;;;;8.10;7.60;;;15.80;99.90;;;;;;4900607;29;20287;-77
2021/06/06 04:09:40;;;;;;;8.70;8.20;;;15.80;99.90;;;;;;4898705;29;20204;-78
2021/06/06 04:12:08;;;;;;;8.40;7.90;;;15.80;99.90;;;;;;4918589;29;20188;-77
2021/06/06 04:14:38;;;;;;;8.50;8.00;;;15.80;99.90;;;;;;4917599;29;20196;-77
2021/06/06 04:17:06;;;;;;;8.63;8.13;;;15.80;99.90;;;;;;4915351;29;20216;-77
2021/06/06 04:19:39;;;;;;;8.70;8.20;;;15.80;99.90;;;;;;4900354;29;20263;-78
2021/06/06 04:22:07;;;;;;;8.60;8.10;;;15.80;99.90;;;;;;4916782;29;20286;-76
2021/06/06 04:24:34;;;;;;;8.70;8.20;;;15.80;99.90;;;;;;4900139;29;20237;-78
2021/06/06 04:27:01;;;;;;;9.00;8.40;;;15.90;99.90;;;;;;4896933;29;20708;-76
2021/06/06 04:29:28;;;;;;;8.70;8.20;;;15.80;99.90;;;;;;4898894;29;20231;-78
2021/06/06 04:31:59;;;;;;;8.53;8.03;;;15.90;99.90;;;;;;4915757;29;20638;-77
2021/06/06 04:34:27;;;;;;;8.17;7.67;;;15.90;99.90;;;;;;4895368;29;20232;-77
2021/06/06 04:36:55;;;;;;;9.00;8.40;;;15.90;99.90;;;;;;4900856;29;20208;-77
2021/06/06 04:39:31;;;;;;;8.80;8.30;;;15.90;99.90;;;;;;4949939;23;20226;-77
2021/06/06 04:42:00;;;;;;;5.60;5.20;;;15.90;99.90;;;;;;4937908;29;20218;-78
2021/06/06 04:44:40;;;;;;;5.40;5.10;;;15.90;99.90;;;;;;4938390;29;20574;-77
2021/06/06 04:47:13;;;;;;;6.00;5.60;;;15.90;99.90;;;;;;4934794;29;20202;-78
2021/06/06 04:49:56;;;;;;;5.93;5.53;;;16.00;99.90;;;;;;4924684;29;20231;-78
2021/06/06 04:52:39;;;;;;;6.10;5.70;;;16.00;99.90;;;;;;4935011;29;20197;-77
2021/06/06 04:55:18;;;;;;;5.90;5.50;;;16.00;99.90;;;;;;4927474;29;20210;-78
2021/06/06 04:57:51;;;;;;;6.10;5.70;;;16.00;99.90;;;;;;4944399;23;20228;-77
2021/06/06 05:00:28;;;;;;;6.40;6.00;;;16.00;99.90;;;;;;4915404;29;20605;-78
2021/06/06 05:03:04;;;;;;;5.87;5.47;;;16.00;99.90;;;;;;4900299;29;20223;-78
2021/06/06 05:05:56;;;;;;;6.03;5.63;;;16.00;99.90;;;;;;4899471;29;20208;-78
2021/06/06 05:08:31;;;;;;;6.30;5.90;;;16.00;99.90;;;;;;4920793;23;20242;-79
2021/06/06 05:11:06;;;;;;;6.07;5.67;;;16.00;99.90;;;;;;4938992;29;20215;-78
2021/06/06 05:16:45;;;;;;;6.97;6.47;;;16.00;99.90;;;;;;4933290;29;20625;-78
2021/06/06 05:19:19;;;;;;;6.77;6.27;;;16.00;99.90;;;;;;4944838;23;20296;-78
2021/06/06 05:22:13;;;;;;;6.53;6.13;;;16.00;99.90;;;;;;4935180;29;20303;-78
2021/06/06 05:24:48;;;;;;;6.67;6.17;;;16.00;99.90;;;;;;4932607;29;20580;-77
2021/06/06 05:30:57;;;;;;;6.30;5.90;;;16.10;99.90;;;;;;4947228;23;20233;-80
2021/06/06 05:33:42;;;;;;;6.10;5.70;;;16.00;99.90;;;;;;4932720;29;20203;-79
2021/06/06 05:36:41;;;;;;;6.20;5.80;;;16.00;99.90;;;;;;4912330;29;20299;-79
2021/06/06 05:39:50;;;;;;;6.20;5.80;;;16.00;99.90;;;;;;4971423;23;20238;-80
2021/06/06 05:42:37;;;;;;;6.40;6.00;;;16.00;99.90;;;;;;4920665;29;20214;-79
2021/06/06 05:45:36;;;;;;;6.70;6.20;;;16.00;99.90;;;;;;4940035;29;20200;-79
2021/06/06 05:48:20;;;;;;;6.20;5.80;;;16.00;99.90;;;;;;4957657;23;20227;-80
2021/06/06 05:50:53;;;;;;;6.80;6.20;;;16.10;99.90;;;;;;4934488;29;20199;-79
2021/06/06 05:54:10;;;;;;;6.33;5.93;;;16.10;99.90;;;;;;4932756;29;20773;-78
2021/06/06 06:00:14;;;;;;;5.40;5.10;;;16.10;99.90;;;;;;4914799;29;20228;-78
2021/06/06 06:10:07;;;;;;;6.07;5.67;;;16.10;99.90;;;;;;4942054;23;20318;-78
2021/06/06 06:12:48;;;;;;;5.70;5.30;;;16.10;99.90;;;;;;4955288;29;20194;-79
2021/06/06 06:15:31;;;;;;;5.43;5.13;;;16.10;99.90;;;;;;4958850;28;20238;-78
2021/06/06 06:18:13;;;;;;;5.77;5.37;;;16.00;99.90;;;;;;4945481;23;20687;-79
2021/06/06 06:20:50;;;;;;;5.40;5.10;;;16.10;99.90;;;;;;4936499;29;20215;-79
2021/06/06 06:23:44;;;;;;;5.00;4.70;;;16.10;99.90;;;;;;4934426;29;20704;-79
2021/06/06 06:26:27;;;;;;;5.00;4.60;;;16.10;99.90;;;;;;4933882;29;20210;-78
2021/06/06 06:29:20;;;;;;;4.83;4.50;;;16.20;99.90;;;;;;4935879;29;20224;-79
2021/06/06 06:32:29;;;;;;;3.77;3.57;;;16.20;99.90;;;;;;4936047;29;20223;-79
2021/06/06 06:35:02;;;;;;;5.70;5.30;;;16.30;99.90;;;;;;4918436;29;20285;-79
2021/06/06 06:37:47;;;;;;;6.40;6.00;;;16.30;99.90;;;;;;4918538;29;20227;-80
2021/06/06 06:40:25;;;;;;;5.00;4.70;;;16.30;99.90;;;;;;4910798;29;20212;-80
2021/06/06 06:46:01;;;;;;;3.10;2.90;;;16.40;99.90;;;;;;4904684;29;20231;-80
2021/06/06 06:48:46;;;;;;;3.20;3.00;;;16.40;99.90;;;;;;4933152;23;20223;-79
2021/06/06 06:51:50;;;;;;;5.07;4.77;;;16.30;99.90;;;;;;4933126;29;20222;-80
2021/06/06 06:54:35;;;;;;;5.50;5.20;;;16.40;99.90;;;;;;4926028;29;20195;-79
2021/06/06 06:57:13;;;;;;;6.00;5.60;;;16.50;99.90;;;;;;4914453;29;20297;-80
2021/06/06 06:59:49;;;;;;;7.63;7.13;;;16.50;99.90;;;;;;4933000;29;20319;-79
2021/06/06 07:02:38;;;;;;;4.57;4.27;;;16.50;99.90;;;;;;4914788;29;20219;-79
2021/06/06 07:05:38;;;;;;;5.30;5.00;;;16.50;99.90;;;;;;4913480;29;20674;-79
2021/06/06 07:08:42;;;;;;;9.30;8.70;;;16.50;99.90;;;;;;4929914;29;20237;-79
2021/06/06 07:11:30;;;;;;;8.67;8.17;;;16.50;99.90;;;;;;4917421;29;20295;-79
2021/06/06 07:14:14;;;;;;;8.93;8.30;;;16.50;99.90;;;;;;4912186;29;20298;-79
2021/06/06 07:20:16;;;;;;;8.57;8.07;;;16.40;99.90;;;;;;4932605;29;20236;-79
2021/06/06 07:23:27;;;;;;;8.10;7.70;;;16.50;99.90;;;;;;4925856;29;20219;-79
2021/06/06 07:26:15;;;;;;;8.40;7.90;;;16.50;99.90;;;;;;4916800;29;20203;-79
2021/06/06 07:28:56;;;;;;;8.70;8.20;;;16.60;99.90;;;;;;4934840;29;20223;-79
2021/06/06 07:38:40;;;;;;;6.20;5.80;;;16.70;99.90;;;;;;4885109;29;20799;-81
2021/06/06 07:41:17;;;;;;;6.20;5.80;;;16.70;99.90;;;;;;4888455;29;20221;-79
2021/06/06 07:47:53;;;;;;;6.20;5.90;;;16.70;99.90;;;;;;4845433;29;20201;-80
2021/06/06 07:51:16;;;;;;;6.30;5.90;;;16.80;99.90;;;;;;4931767;29;20211;-80
2021/06/06 07:54:51;;;;;;;;;;;;;;;;;;;;;
2021/06/06 08:01:01;;;;;;;6.67;6.27;;;17.00;99.90;;;;;;4886244;29;20205;-80
2021/06/06 08:04:18;;;;;;;6.00;5.60;;;16.90;99.90;;;;;;4932678;29;20224;-79
2021/06/06 08:06:55;;;;;;;7.20;6.70;;;16.90;99.90;;;;;;4877081;29;20674;-80
2021/06/06 08:10:29;;;;;;;7.60;7.13;;;16.80;99.90;;;;;;4936884;29;20345;-80
2021/06/06 08:13:53;;;;;;;9.40;8.90;;;16.80;99.90;;;;;;4911195;29;20204;-79
2021/06/06 08:16:54;;;;;;;9.43;8.93;;;16.80;99.90;;;;;;4932081;29;20579;-80
2021/06/06 08:23:45;;;;;;;6.30;6.00;;;16.80;99.90;;;;;;4935934;29;20219;-81
2021/06/06 08:26:37;;;;;;;6.63;6.23;;;16.90;99.90;;;;;;4929037;29;20198;-81
2021/06/06 08:29:16;;;;;;;9.40;8.90;;;16.90;99.90;;;;;;4933643;29;20715;-81
2021/06/06 08:31:52;;;;;;;9.27;8.77;;;17.00;99.90;;;;;;4945623;28;20198;-82
2021/06/06 08:34:30;;;;;;;9.60;9.00;;;17.00;99.90;;;;;;4930186;29;20228;-80
2021/06/06 08:37:07;;;;;;;9.40;8.90;;;16.90;99.90;;;;;;4924145;29;20616;-80
2021/06/06 08:39:36;;;;;;;9.30;8.80;;;16.90;99.90;;;;;;4925688;29;20328;-80
2021/06/06 08:42:17;;;;;;;9.10;8.60;;;17.00;99.90;;;;;;4923793;29;20708;-81
2021/06/06 08:45:00;;;;;;;9.13;8.60;;;16.90;99.90;;;;;;4931234;29;20220;-81
2021/06/06 08:47:43;;;;;;;9.37;8.77;;;17.00;99.90;;;;;;4933169;29;20682;-80
2021/06/06 08:50:17;;;;;;;9.53;8.93;;;16.90;99.90;;;;;;4929592;29;20224;-80
2021/06/06 08:52:58;;;;;;;9.80;9.20;;;16.90;99.90;;;;;;4932342;29;20226;-80
2021/06/06 08:55:35;;;;;;;9.40;8.90;;;16.90;99.90;;;;;;4941003;29;20216;-80
2021/06/06 09:01:15;;;;;;;9.97;9.40;;;16.90;99.90;;;;;;4925859;29;20613;-81
2021/06/06 09:04:02;;;;;;;10.13;9.53;;;16.90;99.90;;;;;;4942396;28;20318;-81
2021/06/06 09:06:52;;;;;;;10.30;9.70;;;16.90;99.90;;;;;;4950627;29;20269;-80
2021/06/06 09:15:31;;;;;;;10.10;9.50;;;16.90;99.90;;;;;;4944722;29;20272;-79
2021/06/06 09:18:20;;;;;;;9.80;9.30;;;16.90;99.90;;;;;;4956989;29;20677;-80
2021/06/06 09:21:27;;;;;;;10.60;9.90;;;16.80;99.90;;;;;;4931402;29;20231;-80
2021/06/06 09:24:23;;;;;;;10.90;10.20;;;16.90;99.90;;;;;;4934715;29;20235;-81
2021/06/06 09:27:07;;;;;;;11.77;10.97;;;16.80;99.90;;;;;;4950168;29;20202;-80
2021/06/06 09:29:43;;;;;;;12.27;11.37;;;16.80;99.90;;;;;;4934005;29;20278;-80
2021/06/06 09:32:18;;;;;;;14.00;12.83;;;16.80;99.90;;;;;;4925504;29;20207;-80
2021/06/06 09:35:03;;;;;;;10.27;9.27;;;16.80;99.90;;;;;;4937300;29;20285;-80
2021/06/06 09:37:46;;;;;;;10.93;9.83;;;16.80;99.90;;;;;;4937181;29;20233;-80
2021/06/06 09:43:35;;;;;;;10.43;9.43;;;16.70;99.90;;;;;;4924769;29;20232;-80
2021/06/06 09:46:22;;;;;;;10.97;9.63;;;16.60;99.90;;;;;;4952444;29;20847;-80
2021/06/06 09:53:25;;;;;;;14.40;11.67;;;16.60;99.90;;;;;;4940358;29;20214;-79
2021/06/06 09:57:07;;;;;;;11.57;10.37;;;16.60;99.90;;;;;;4943569;29;20390;-79
2021/06/06 10:15:33;;;;;;;12.90;11.60;;;16.60;99.90;;;;;;4847082;29;20218;-79
2021/06/06 10:18:51;;;;;;;14.50;12.93;;;16.70;99.90;;;;;;4872036;23;20228;-77
2021/06/06 10:39:58;;;;;;;13.23;11.03;;;16.70;99.90;;;;;;5187575;23;20252;-81
2021/06/06 10:42:31;;;;;;;16.73;14.17;;;16.70;99.90;;;;;;4933568;29;20704;-80
2021/06/06 10:45:04;;;;;;;19.30;14.17;;;16.60;99.90;;;;;;4917022;29;20229;-80
2021/06/06 10:47:40;;;;;;;16.97;12.77;;;16.60;99.90;;;;;;4934505;29;20767;-80
2021/06/06 10:50:16;;;;;;;17.17;13.40;;;16.60;99.90;;;;;;4919059;29;20262;-77
2021/06/06 10:52:43;;;;;;;15.20;12.83;;;16.70;99.90;;;;;;4918894;29;20196;-77
2021/06/06 10:55:27;;;;;;;14.87;13.10;;;16.70;99.90;;;;;;4919492;29;20210;-78
2021/06/06 10:57:56;;;;;;;15.70;13.50;;;16.70;99.90;;;;;;4916955;29;20204;-77
2021/06/06 11:00:33;;;;;;;15.37;13.63;;;16.70;99.90;;;;;;4920305;29;20230;-77
2021/06/06 11:03:03;;;;;;;14.43;12.67;;;16.80;99.90;;;;;;4919549;29;20219;-77
2021/06/06 11:05:45;;;;;;;14.27;11.80;;;16.90;99.90;;;;;;4919530;29;20273;-76
2021/06/06 11:08:20;;;;;;;15.77;13.97;;;17.00;99.90;;;;;;4931901;29;20316;-78
2021/06/06 11:10:47;;;;;;;18.33;16.63;;;17.10;99.90;;;;;;4932071;29;20216;-77
2021/06/06 11:13:30;;;;;;;18.47;16.77;;;17.20;99.90;;;;;;4920001;29;20200;-77
2021/06/06 11:15:59;;;;;;;17.53;16.07;;;17.20;99.90;;;;;;4932888;29;20244;-77
2021/06/06 11:18:26;;;;;;;15.30;13.80;;;17.30;99.90;;;;;;4914601;29;20216;-77
2021/06/06 11:20:55;;;;;;;16.97;15.27;;;17.40;99.90;;;;;;4919711;29;20239;-76
2021/06/06 11:23:33;;;;;;;14.33;13.00;;;17.30;99.90;;;;;;4919309;29;20224;-77
2021/06/06 11:26:00;;;;;;;15.17;13.70;;;17.30;99.90;;;;;;4918846;29;20202;-78
2021/06/06 11:28:35;;;;;;;15.03;13.63;;;17.30;99.90;;;;;;4919919;29;20217;-77
2021/06/06 11:31:03;;;;;;;17.77;16.17;;;17.30;99.90;;;;;;4922833;29;20238;-77
2021/06/06 11:33:37;;;;;;;16.63;15.23;;;17.30;99.90;;;;;;4921000;29;20199;-77
2021/06/06 11:36:04;;;;;;;16.00;14.60;;;17.20;99.90;;;;;;4938874;29;20207;-77
2021/06/06 11:38:37;;;;;;;15.07;13.83;;;17.20;99.90;;;;;;4921424;29;20196;-77
2021/06/06 11:41:33;;;;;;;16.70;15.10;;;17.30;99.90;;;;;;4921028;29;20298;-76
2021/06/06 11:44:21;;;;;;;15.80;14.50;;;17.30;99.90;;;;;;4932197;29;20216;-79
2021/06/06 11:46:53;;;;;;;15.87;14.40;;;17.30;99.90;;;;;;4935288;29;20212;-78
2021/06/06 11:49:30;;;;;;;14.60;13.03;;;17.30;99.90;;;;;;4919883;29;20221;-78
2021/06/06 11:52:06;;;;;;;13.70;12.40;;;17.30;99.90;;;;;;4920411;29;20207;-78
2021/06/06 11:54:36;;;;;;;14.13;12.63;;;17.30;99.90;;;;;;4936623;29;20225;-78
2021/06/06 11:57:08;;;;;;;13.93;12.63;;;17.30;99.90;;;;;;4919730;29;20670;-78
2021/06/06 11:59:40;;;;;;;15.63;13.63;;;17.30;99.90;;;;;;4936709;29;20228;-79
2021/06/06 12:02:12;;;;;;;15.10;13.60;;;17.30;99.90;;;;;;4936277;29;20693;-78
2021/06/06 12:04:39;;;;;;;15.00;13.40;;;17.40;99.90;;;;;;4934467;29;20201;-78
2021/06/06 12:07:13;;;;;;;14.93;13.47;;;17.40;99.90;;;;;;4936376;29;20261;-78
2021/06/06 12:09:44;;;;;;;14.30;12.90;;;17.50;99.90;;;;;;4921482;29;20227;-79
2021/06/06 12:12:14;;;;;;;14.87;13.50;;;17.40;99.90;;;;;;4937227;29;20215;-77
2021/06/06 12:15:00;;;;;;;15.27;13.57;;;17.40;99.90;;;;;;4919583;29;20200;-75
2021/06/06 12:17:27;;;;;;;15.87;14.27;;;17.40;99.90;;;;;;4935113;29;20198;-77
2021/06/06 12:19:57;;;;;;;14.03;12.73;;;17.30;99.90;;;;;;4938902;29;20347;-77
2021/06/06 12:22:29;;;;;;;14.53;13.13;;;17.40;99.90;;;;;;4919903;29;20224;-77
2021/06/06 12:25:08;;;;;;;17.37;15.57;;;17.40;99.90;;;;;;4923019;29;20197;-76
2021/06/06 12:27:40;;;;;;;19.17;17.37;;;17.30;99.90;;;;;;4923481;29;20728;-76
2021/06/06 12:30:18;;;;;;;19.97;17.40;;;17.30;99.90;;;;;;4924192;29;20281;-76
2021/06/06 12:32:52;;;;;;;20.00;18.00;;;17.30;99.90;;;;;;4918878;29;20201;-77
2021/06/06 12:35:21;;;;;;;18.17;16.27;;;17.30;99.90;;;;;;4904144;29;20210;-77
2021/06/06 12:37:52;;;;;;;19.93;17.87;;;17.20;99.90;;;;;;4922264;29;20214;-76
2021/06/06 12:40:21;;;;;;;22.07;19.83;;;17.20;99.90;;;;;;4936449;29;20241;-77
2021/06/06 12:42:49;;;;;;;20.00;17.87;;;17.20;99.90;;;;;;4923249;29;20225;-76
2021/06/06 12:45:19;;;;;;;18.97;17.07;;;17.20;99.90;;;;;;4936713;29;20211;-76
2021/06/06 12:47:47;;;;;;;23.80;19.17;;;17.20;99.90;;;;;;4928967;29;20575;-76
2021/06/06 12:50:28;;;;;;;22.47;19.00;;;17.20;99.90;;;;;;4934937;29;20235;-77
2021/06/06 12:52:58;;;;;;;24.23;19.60;;;17.10;99.90;;;;;;4937933;29;20213;-77
2021/06/06 12:55:27;;;;;;;29.53;22.60;;;17.10;99.90;;;;;;4922503;29;20199;-77
2021/06/06 12:57:57;;;;;;;24.77;18.90;;;17.10;99.90;;;;;;4921860;29;20204;-77
2021/06/06 13:00:28;;;;;;;22.93;19.20;;;17.10;99.90;;;;;;4938499;29;20260;-76
2021/06/06 13:02:55;;;;;;;25.57;19.60;;;17.10;99.90;;;;;;4920734;29;20277;-76
2021/06/06 13:05:34;;;;;;;32.07;24.67;;;17.10;99.90;;;;;;4938248;29;20203;-77
2021/06/06 13:08:03;;;;;;;28.93;22.20;;;17.10;99.90;;;;;;4920296;29;20212;-77
2021/06/06 13:10:33;;;;;;;28.40;20.83;;;17.00;99.90;;;;;;4920409;29;20284;-76
2021/06/06 13:13:00;;;;;;;23.63;19.10;;;17.00;99.90;;;;;;4919308;29;20213;-79
2021/06/06 13:15:38;;;;;;;27.10;19.87;;;17.10;99.90;;;;;;4918045;29;20219;-78
2021/06/06 13:18:17;;;;;;;23.97;18.80;;;17.10;99.90;;;;;;4918221;29;20208;-79
2021/06/06 13:21:12;;;;;;;20.60;18.13;;;17.10;99.90;;;;;;4918347;29;20271;-79
2021/06/06 13:23:43;;;;;;;29.70;20.43;;;17.10;99.90;;;;;;4919549;29;20220;-79
2021/06/06 13:26:13;;;;;;;23.17;19.70;;;17.20;99.90;;;;;;4924425;29;20205;-78
2021/06/06 13:28:42;;;;;;;27.30;21.83;;;17.20;99.90;;;;;;4938127;29;20214;-77
2021/06/06 13:31:21;;;;;;;25.83;23.00;;;17.20;99.90;;;;;;4941964;29;20206;-78
2021/06/06 13:33:47;;;;;;;26.03;23.40;;;17.20;99.90;;;;;;4939496;29;20248;-78
2021/06/06 13:36:15;;;;;;;25.77;23.07;;;17.20;99.90;;;;;;4926522;29;20602;-78
2021/06/06 13:38:41;;;;;;;26.27;23.57;;;17.20;99.90;;;;;;4928721;29;20200;-78
2021/06/06 13:41:08;;;;;;;27.87;24.90;;;17.20;99.90;;;;;;4924071;29;20226;-78
2021/06/06 13:43:37;;;;;;;24.67;22.17;;;17.20;99.90;;;;;;4919524;29;20284;-78
2021/06/06 13:46:04;;;;;;;25.13;22.30;;;17.20;99.90;;;;;;4925073;29;20207;-77
2021/06/06 13:48:36;;;;;;;27.43;24.03;;;17.20;99.90;;;;;;4924671;29;20216;-78
2021/06/06 13:51:03;;;;;;;26.27;23.67;;;17.20;99.90;;;;;;4940609;29;20223;-78
2021/06/06 13:53:31;;;;;;;26.20;23.50;;;17.10;99.90;;;;;;4940345;29;20202;-77
2021/06/06 13:55:58;;;;;;;24.47;22.07;;;17.10;99.90;;;;;;4923279;29;20214;-78
2021/06/06 13:58:26;;;;;;;26.60;23.90;;;17.10;99.90;;;;;;4937237;29;20219;-77
2021/06/06 14:00:53;;;;;;;24.17;21.53;;;17.20;99.90;;;;;;4922418;29;20230;-78
2021/06/06 14:03:24;;;;;;;23.70;21.30;;;17.20;99.90;;;;;;4940023;29;20251;-78
2021/06/06 14:05:53;;;;;;;25.87;23.27;;;17.20;99.90;;;;;;4937344;29;20257;-77
2021/06/06 14:08:19;;;;;;;26.20;23.50;;;17.20;99.90;;;;;;4939829;29;20204;-78
2021/06/06 14:10:48;;;;;;;25.20;22.67;;;17.10;99.90;;;;;;4922196;29;20243;-76
2021/06/06 14:13:21;;;;;;;24.03;21.73;;;17.20;99.90;;;;;;4922099;29;20239;-78
2021/06/06 14:15:48;;;;;;;26.47;23.63;;;17.20;99.90;;;;;;4918563;29;20207;-77
2021/06/06 14:18:14;;;;;;;28.70;25.77;;;17.20;99.90;;;;;;4922129;29;20209;-77
2021/06/06 14:20:41;;;;;;;26.87;24.07;;;17.10;99.90;;;;;;4939487;29;20251;-76
2021/06/06 14:23:11;;;;;;;24.80;22.30;;;17.20;99.90;;;;;;4937842;29;20223;-77
2021/06/06 14:25:40;;;;;;;25.43;23.03;;;17.20;99.90;;;;;;4921664;29;20210;-77
2021/06/06 14:28:08;;;;;;;27.37;24.57;;;17.10;99.90;;;;;;4921284;29;20206;-77
2021/06/06 14:30:35;;;;;;;25.97;23.47;;;17.10;99.90;;;;;;4935701;29;20237;-77
2021/06/06 14:33:02;;;;;;;29.43;25.27;;;17.10;99.90;;;;;;4938932;29;20677;-76
2021/06/06 14:35:28;;;;;;;26.00;23.40;;;17.00;99.90;;;;;;4925164;29;20234;-78
2021/06/06 14:37:55;;;;;;;31.03;27.83;;;17.00;99.90;;;;;;4939997;29;20208;-77
2021/06/06 14:40:26;;;;;;;29.60;26.57;;;17.00;99.90;;;;;;4919644;29;20581;-78
2021/06/06 14:42:53;;;;;;;24.60;22.20;;;17.00;99.90;;;;;;4918984;29;20217;-78
2021/06/06 14:45:23;;;;;;;31.23;27.97;;;16.90;99.90;;;;;;4939665;29;20199;-77
2021/06/06 14:47:49;;;;;;;30.43;27.27;;;16.90;99.90;;;;;;4940277;29;20200;-77
2021/06/06 14:50:16;;;;;;;27.70;24.70;;;16.90;99.90;;;;;;4921636;29;20279;-77
2021/06/06 14:52:42;;;;;;;32.67;28.83;;;16.80;99.90;;;;;;4938429;29;20195;-78
2021/06/06 14:55:11;;;;;;;29.47;26.57;;;16.90;99.90;;;;;;4938387;29;20567;-80
2021/06/06 14:57:39;;;;;;;26.50;23.73;;;16.80;99.90;;;;;;4938011;29;20198;-77
2021/06/06 15:00:09;;;;;;;29.90;26.80;;;16.90;99.90;;;;;;4919196;29;20327;-78